sensor_id;sensor_type;location;lat;lon;timestamp;P1;durP1;ratioP1;P2;durP2;ratioP2
71360;SDS011;59166;48.908;1.870;2022-07-29T00:01:55;6.23;;;2.20;;
71360;SDS011;59166;48.908;1.870;2022-07-29T00:06:56;6.30;;;2.17;;
71360;SDS011;59166;48.908;1.870;2022-07-29T00:11:58;5.87;;;2.10;;
71360;SDS011;59166;48.908;1.870;2022-07-29T00:17:02;7.00;;;2.30;;
71360;SDS011;59166;48.908;1.870;2022-07-29T00:22:02;5.85;;;2.13;;
71360;SDS011;59166;48.908;1.870;2022-07-29T00:27:03;6.50;;;2.43;;
71360;SDS011;59166;48.908;1.870;2022-07-29T00:32:05;7.70;;;2.30;;
71360;SDS011;59166;48.908;1.870;2022-07-29T00:37:06;8.20;;;2.20;;
71360;SDS011;59166;48.908;1.870;2022-07-29T00:42:07;6.57;;;2.30;;
71360;SDS011;59166;48.908;1.870;2022-07-29T00:47:09;6.20;;;2.33;;
71360;SDS011;59166;48.908;1.870;2022-07-29T00:52:11;7.77;;;2.60;;
71360;SDS011;59166;48.908;1.870;2022-07-29T00:57:13;6.88;;;2.30;;
71360;SDS011;59166;48.908;1.870;2022-07-29T01:02:15;7.35;;;2.33;;
71360;SDS011;59166;48.908;1.870;2022-07-29T01:07:16;7.67;;;2.23;;
71360;SDS011;59166;48.908;1.870;2022-07-29T01:12:19;5.87;;;2.30;;
71360;SDS011;59166;48.908;1.870;2022-07-29T01:17:25;6.25;;;2.47;;
71360;SDS011;59166;48.908;1.870;2022-07-29T01:22:36;7.82;;;2.40;;
71360;SDS011;59166;48.908;1.870;2022-07-29T01:28:01;6.10;;;2.47;;
71360;SDS011;59166;48.908;1.870;2022-07-29T01:33:19;6.05;;;2.28;;
71360;SDS011;59166;48.908;1.870;2022-07-29T01:38:24;6.20;;;2.33;;
71360;SDS011;59166;48.908;1.870;2022-07-29T01:43:33;9.03;;;2.33;;
71360;SDS011;59166;48.908;1.870;2022-07-29T01:48:41;9.77;;;2.70;;
71360;SDS011;59166;48.908;1.870;2022-07-29T01:53:47;7.47;;;2.50;;
71360;SDS011;59166;48.908;1.870;2022-07-29T01:58:54;6.57;;;2.60;;
71360;SDS011;59166;48.908;1.870;2022-07-29T02:03:58;6.70;;;2.40;;
71360;SDS011;59166;48.908;1.870;2022-07-29T02:09:02;8.98;;;2.60;;
71360;SDS011;59166;48.908;1.870;2022-07-29T02:14:05;6.05;;;2.35;;
71360;SDS011;59166;48.908;1.870;2022-07-29T02:19:11;7.50;;;2.20;;
71360;SDS011;59166;48.908;1.870;2022-07-29T02:24:14;6.05;;;2.30;;
71360;SDS011;59166;48.908;1.870;2022-07-29T02:29:18;8.35;;;2.53;;
71360;SDS011;59166;48.908;1.870;2022-07-29T02:34:22;7.50;;;2.40;;
71360;SDS011;59166;48.908;1.870;2022-07-29T02:39:24;7.90;;;2.50;;
71360;SDS011;59166;48.908;1.870;2022-07-29T02:44:27;7.63;;;2.75;;
71360;SDS011;59166;48.908;1.870;2022-07-29T02:49:31;7.60;;;2.57;;
71360;SDS011;59166;48.908;1.870;2022-07-29T02:54:37;6.20;;;2.30;;
71360;SDS011;59166;48.908;1.870;2022-07-29T02:59:40;8.20;;;2.30;;
71360;SDS011;59166;48.908;1.870;2022-07-29T03:04:44;6.40;;;2.72;;
71360;SDS011;59166;48.908;1.870;2022-07-29T03:09:47;6.80;;;2.40;;
71360;SDS011;59166;48.908;1.870;2022-07-29T03:14:49;6.75;;;2.60;;
71360;SDS011;59166;48.908;1.870;2022-07-29T03:19:52;6.13;;;2.30;;
71360;SDS011;59166;48.908;1.870;2022-07-29T03:24:54;5.77;;;2.33;;
71360;SDS011;59166;48.908;1.870;2022-07-29T03:29:55;6.25;;;2.30;;
71360;SDS011;59166;48.908;1.870;2022-07-29T03:34:57;5.87;;;2.40;;
71360;SDS011;59166;48.908;1.870;2022-07-29T03:39:58;5.80;;;2.38;;
71360;SDS011;59166;48.908;1.870;2022-07-29T03:44:59;5.77;;;2.40;;
71360;SDS011;59166;48.908;1.870;2022-07-29T03:50:07;6.25;;;2.60;;
71360;SDS011;59166;48.908;1.870;2022-07-29T03:55:10;8.50;;;2.60;;
71360;SDS011;59166;48.908;1.870;2022-07-29T04:00:12;6.60;;;2.80;;
71360;SDS011;59166;48.908;1.870;2022-07-29T04:05:15;7.90;;;2.33;;
71360;SDS011;59166;48.908;1.870;2022-07-29T04:10:16;6.78;;;2.28;;
71360;SDS011;59166;48.908;1.870;2022-07-29T04:15:18;7.50;;;2.43;;
71360;SDS011;59166;48.908;1.870;2022-07-29T04:20:20;5.57;;;2.30;;
71360;SDS011;59166;48.908;1.870;2022-07-29T04:25:21;8.50;;;2.88;;
71360;SDS011;59166;48.908;1.870;2022-07-29T04:30:22;6.83;;;2.80;;
71360;SDS011;59166;48.908;1.870;2022-07-29T04:35:24;6.80;;;2.70;;
71360;SDS011;59166;48.908;1.870;2022-07-29T04:40:25;7.32;;;2.90;;
71360;SDS011;59166;48.908;1.870;2022-07-29T04:45:25;7.20;;;2.60;;
71360;SDS011;59166;48.908;1.870;2022-07-29T04:50:28;6.72;;;3.10;;
71360;SDS011;59166;48.908;1.870;2022-07-29T04:55:28;8.07;;;3.30;;
71360;SDS011;59166;48.908;1.870;2022-07-29T05:00:29;7.63;;;3.10;;
71360;SDS011;59166;48.908;1.870;2022-07-29T05:05:31;7.43;;;3.30;;
71360;SDS011;59166;48.908;1.870;2022-07-29T05:10:32;8.27;;;3.50;;
71360;SDS011;59166;48.908;1.870;2022-07-29T05:15:32;8.43;;;3.50;;
71360;SDS011;59166;48.908;1.870;2022-07-29T05:20:34;9.47;;;3.60;;
71360;SDS011;59166;48.908;1.870;2022-07-29T05:25:35;9.93;;;3.60;;
71360;SDS011;59166;48.908;1.870;2022-07-29T05:30:35;8.00;;;3.63;;
71360;SDS011;59166;48.908;1.870;2022-07-29T05:35:37;8.47;;;3.30;;
71360;SDS011;59166;48.908;1.870;2022-07-29T05:40:38;7.70;;;3.17;;
71360;SDS011;59166;48.908;1.870;2022-07-29T05:45:39;6.50;;;2.90;;
71360;SDS011;59166;48.908;1.870;2022-07-29T05:50:41;7.43;;;3.10;;
71360;SDS011;59166;48.908;1.870;2022-07-29T05:55:42;6.80;;;2.92;;
71360;SDS011;59166;48.908;1.870;2022-07-29T06:00:42;7.03;;;3.10;;
71360;SDS011;59166;48.908;1.870;2022-07-29T06:05:45;7.47;;;3.25;;
71360;SDS011;59166;48.908;1.870;2022-07-29T06:10:45;7.70;;;3.20;;
71360;SDS011;59166;48.908;1.870;2022-07-29T06:15:46;7.90;;;3.20;;
71360;SDS011;59166;48.908;1.870;2022-07-29T06:20:48;8.33;;;3.27;;
71360;SDS011;59166;48.908;1.870;2022-07-29T06:25:49;7.93;;;3.15;;
71360;SDS011;59166;48.908;1.870;2022-07-29T06:30:49;7.87;;;3.17;;
71360;SDS011;59166;48.908;1.870;2022-07-29T06:35:52;8.45;;;3.03;;
71360;SDS011;59166;48.908;1.870;2022-07-29T06:40:52;8.97;;;3.50;;
71360;SDS011;59166;48.908;1.870;2022-07-29T06:45:53;12.48;;;6.32;;
71360;SDS011;59166;48.908;1.870;2022-07-29T06:50:55;13.77;;;7.27;;
71360;SDS011;59166;48.908;1.870;2022-07-29T06:55:55;14.80;;;8.43;;
71360;SDS011;59166;48.908;1.870;2022-07-29T07:00:56;14.17;;;7.70;;
71360;SDS011;59166;48.908;1.870;2022-07-29T07:05:59;15.93;;;7.57;;
71360;SDS011;59166;48.908;1.870;2022-07-29T07:10:59;10.60;;;4.80;;
71360;SDS011;59166;48.908;1.870;2022-07-29T07:16:00;10.43;;;4.73;;
71360;SDS011;59166;48.908;1.870;2022-07-29T07:21:02;10.43;;;4.90;;
71360;SDS011;59166;48.908;1.870;2022-07-29T07:26:03;9.43;;;4.47;;
71360;SDS011;59166;48.908;1.870;2022-07-29T07:31:04;12.98;;;3.88;;
71360;SDS011;59166;48.908;1.870;2022-07-29T07:36:06;8.63;;;3.20;;
71360;SDS011;59166;48.908;1.870;2022-07-29T07:41:07;7.78;;;2.95;;
71360;SDS011;59166;48.908;1.870;2022-07-29T07:46:08;7.20;;;2.90;;
71360;SDS011;59166;48.908;1.870;2022-07-29T07:51:10;7.50;;;2.95;;
71360;SDS011;59166;48.908;1.870;2022-07-29T07:56:10;9.30;;;2.80;;
71360;SDS011;59166;48.908;1.870;2022-07-29T08:01:11;7.72;;;2.80;;
71360;SDS011;59166;48.908;1.870;2022-07-29T08:06:13;7.60;;;2.80;;
71360;SDS011;59166;48.908;1.870;2022-07-29T08:11:14;8.02;;;3.08;;
71360;SDS011;59166;48.908;1.870;2022-07-29T08:16:14;8.20;;;2.60;;
71360;SDS011;59166;48.908;1.870;2022-07-29T08:21:16;6.77;;;2.53;;
71360;SDS011;59166;48.908;1.870;2022-07-29T08:26:18;8.05;;;2.80;;
71360;SDS011;59166;48.908;1.870;2022-07-29T08:31:19;7.68;;;2.40;;
71360;SDS011;59166;48.908;1.870;2022-07-29T08:36:21;5.67;;;2.37;;
71360;SDS011;59166;48.908;1.870;2022-07-29T08:41:21;9.00;;;2.87;;
71360;SDS011;59166;48.908;1.870;2022-07-29T08:46:22;7.07;;;2.57;;
71360;SDS011;59166;48.908;1.870;2022-07-29T08:51:24;7.50;;;2.40;;
71360;SDS011;59166;48.908;1.870;2022-07-29T08:56:26;8.15;;;2.30;;
71360;SDS011;59166;48.908;1.870;2022-07-29T09:01:28;6.93;;;2.35;;
71360;SDS011;59166;48.908;1.870;2022-07-29T09:06:34;6.25;;;2.25;;
71360;SDS011;59166;48.908;1.870;2022-07-29T09:11:36;6.80;;;2.10;;
71360;SDS011;59166;48.908;1.870;2022-07-29T09:16:47;8.10;;;2.50;;
71360;SDS011;59166;48.908;1.870;2022-07-29T09:21:51;6.33;;;2.10;;
71360;SDS011;59166;48.908;1.870;2022-07-29T09:26:52;6.30;;;2.30;;
71360;SDS011;59166;48.908;1.870;2022-07-29T09:31:53;6.38;;;2.10;;
71360;SDS011;59166;48.908;1.870;2022-07-29T09:36:56;8.87;;;2.40;;
71360;SDS011;59166;48.908;1.870;2022-07-29T09:41:57;9.10;;;2.30;;
71360;SDS011;59166;48.908;1.870;2022-07-29T09:47:00;8.77;;;2.10;;
71360;SDS011;59166;48.908;1.870;2022-07-29T09:52:05;6.50;;;2.00;;
71360;SDS011;59166;48.908;1.870;2022-07-29T09:57:07;7.40;;;2.10;;
71360;SDS011;59166;48.908;1.870;2022-07-29T10:02:11;6.75;;;2.15;;
71360;SDS011;59166;48.908;1.870;2022-07-29T10:07:13;8.03;;;2.30;;
71360;SDS011;59166;48.908;1.870;2022-07-29T10:12:14;10.18;;;2.30;;
71360;SDS011;59166;48.908;1.870;2022-07-29T10:17:14;6.40;;;2.40;;
71360;SDS011;59166;48.908;1.870;2022-07-29T10:22:18;8.68;;;2.30;;
71360;SDS011;59166;48.908;1.870;2022-07-29T10:27:19;7.45;;;2.42;;
71360;SDS011;59166;48.908;1.870;2022-07-29T10:32:22;7.90;;;1.90;;
71360;SDS011;59166;48.908;1.870;2022-07-29T10:37:41;7.07;;;2.22;;
71360;SDS011;59166;48.908;1.870;2022-07-29T10:42:53;5.68;;;1.90;;
71360;SDS011;59166;48.908;1.870;2022-07-29T10:48:03;7.03;;;2.00;;
71360;SDS011;59166;48.908;1.870;2022-07-29T10:53:06;8.68;;;2.25;;
71360;SDS011;59166;48.908;1.870;2022-07-29T10:58:16;4.70;;;2.00;;
71360;SDS011;59166;48.908;1.870;2022-07-29T11:08:45;7.40;;;1.98;;
71360;SDS011;59166;48.908;1.870;2022-07-29T11:14:05;6.82;;;1.80;;
71360;SDS011;59166;48.908;1.870;2022-07-29T11:19:19;5.27;;;1.90;;
71360;SDS011;59166;48.908;1.870;2022-07-29T11:24:22;4.35;;;1.70;;
71360;SDS011;59166;48.908;1.870;2022-07-29T11:29:24;8.95;;;1.90;;
71360;SDS011;59166;48.908;1.870;2022-07-29T11:34:26;6.20;;;2.10;;
71360;SDS011;59166;48.908;1.870;2022-07-29T11:39:32;5.50;;;1.90;;
71360;SDS011;59166;48.908;1.870;2022-07-29T11:49:56;4.80;;;1.80;;
71360;SDS011;59166;48.908;1.870;2022-07-29T11:54:58;8.30;;;2.00;;
71360;SDS011;59166;48.908;1.870;2022-07-29T12:00:02;6.43;;;2.30;;
71360;SDS011;59166;48.908;1.870;2022-07-29T12:05:05;7.00;;;2.10;;
71360;SDS011;59166;48.908;1.870;2022-07-29T12:10:08;5.60;;;2.00;;
71360;SDS011;59166;48.908;1.870;2022-07-29T12:15:15;6.00;;;2.17;;
71360;SDS011;59166;48.908;1.870;2022-07-29T12:20:22;6.50;;;2.10;;
71360;SDS011;59166;48.908;1.870;2022-07-29T12:25:25;6.03;;;2.17;;
71360;SDS011;59166;48.908;1.870;2022-07-29T12:30:33;5.38;;;2.20;;
71360;SDS011;59166;48.908;1.870;2022-07-29T12:35:39;7.03;;;2.00;;
71360;SDS011;59166;48.908;1.870;2022-07-29T12:40:41;6.90;;;2.40;;
71360;SDS011;59166;48.908;1.870;2022-07-29T12:45:44;9.95;;;2.20;;
71360;SDS011;59166;48.908;1.870;2022-07-29T12:50:53;9.05;;;2.45;;
71360;SDS011;59166;48.908;1.870;2022-07-29T12:55:57;7.03;;;2.43;;
71360;SDS011;59166;48.908;1.870;2022-07-29T13:01:02;11.05;;;2.42;;
71360;SDS011;59166;48.908;1.870;2022-07-29T13:06:05;9.05;;;2.50;;
71360;SDS011;59166;48.908;1.870;2022-07-29T13:11:07;6.27;;;2.20;;
71360;SDS011;59166;48.908;1.870;2022-07-29T13:16:08;5.82;;;2.13;;
71360;SDS011;59166;48.908;1.870;2022-07-29T13:21:12;5.57;;;2.10;;
71360;SDS011;59166;48.908;1.870;2022-07-29T13:26:15;6.43;;;2.10;;
71360;SDS011;59166;48.908;1.870;2022-07-29T13:31:16;5.22;;;2.22;;
71360;SDS011;59166;48.908;1.870;2022-07-29T13:36:16;6.93;;;2.30;;
71360;SDS011;59166;48.908;1.870;2022-07-29T13:41:18;6.40;;;2.10;;
71360;SDS011;59166;48.908;1.870;2022-07-29T13:46:19;5.68;;;2.20;;
71360;SDS011;59166;48.908;1.870;2022-07-29T13:51:20;9.90;;;2.30;;
71360;SDS011;59166;48.908;1.870;2022-07-29T13:56:22;6.17;;;2.37;;
71360;SDS011;59166;48.908;1.870;2022-07-29T14:01:23;5.97;;;2.28;;
71360;SDS011;59166;48.908;1.870;2022-07-29T14:06:24;6.10;;;2.10;;
71360;SDS011;59166;48.908;1.870;2022-07-29T14:11:26;8.47;;;2.20;;
71360;SDS011;59166;48.908;1.870;2022-07-29T14:16:27;4.30;;;2.00;;
71360;SDS011;59166;48.908;1.870;2022-07-29T14:21:27;5.27;;;2.00;;
71360;SDS011;59166;48.908;1.870;2022-07-29T14:26:30;8.13;;;2.13;;
71360;SDS011;59166;48.908;1.870;2022-07-29T14:31:30;9.25;;;2.40;;
71360;SDS011;59166;48.908;1.870;2022-07-29T14:36:31;5.93;;;2.10;;
71360;SDS011;59166;48.908;1.870;2022-07-29T14:41:34;7.35;;;2.30;;
71360;SDS011;59166;48.908;1.870;2022-07-29T14:46:34;8.13;;;2.30;;
71360;SDS011;59166;48.908;1.870;2022-07-29T14:51:35;7.30;;;2.20;;
71360;SDS011;59166;48.908;1.870;2022-07-29T14:56:37;7.63;;;2.13;;
71360;SDS011;59166;48.908;1.870;2022-07-29T15:01:38;5.63;;;2.10;;
71360;SDS011;59166;48.908;1.870;2022-07-29T15:06:39;6.87;;;2.40;;
71360;SDS011;59166;48.908;1.870;2022-07-29T15:11:41;5.43;;;2.10;;
71360;SDS011;59166;48.908;1.870;2022-07-29T15:16:41;7.22;;;2.28;;
71360;SDS011;59166;48.908;1.870;2022-07-29T15:21:42;6.47;;;2.70;;
71360;SDS011;59166;48.908;1.870;2022-07-29T15:26:44;6.97;;;2.30;;
71360;SDS011;59166;48.908;1.870;2022-07-29T15:31:46;8.23;;;2.30;;
71360;SDS011;59166;48.908;1.870;2022-07-29T15:36:46;8.65;;;2.20;;
71360;SDS011;59166;48.908;1.870;2022-07-29T15:41:48;6.90;;;2.30;;
71360;SDS011;59166;48.908;1.870;2022-07-29T15:46:50;5.28;;;2.30;;
71360;SDS011;59166;48.908;1.870;2022-07-29T15:51:51;6.50;;;2.30;;
71360;SDS011;59166;48.908;1.870;2022-07-29T15:56:53;6.83;;;2.30;;
71360;SDS011;59166;48.908;1.870;2022-07-29T16:01:54;5.55;;;2.38;;
71360;SDS011;59166;48.908;1.870;2022-07-29T16:06:55;6.03;;;2.30;;
71360;SDS011;59166;48.908;1.870;2022-07-29T16:11:57;5.45;;;2.20;;
71360;SDS011;59166;48.908;1.870;2022-07-29T16:16:58;7.77;;;2.20;;
71360;SDS011;59166;48.908;1.870;2022-07-29T16:21:59;5.15;;;2.00;;
71360;SDS011;59166;48.908;1.870;2022-07-29T16:27:01;4.97;;;2.20;;
71360;SDS011;59166;48.908;1.870;2022-07-29T16:32:01;6.20;;;2.20;;
71360;SDS011;59166;48.908;1.870;2022-07-29T16:37:02;7.87;;;2.43;;
71360;SDS011;59166;48.908;1.870;2022-07-29T16:42:04;8.02;;;2.40;;
71360;SDS011;59166;48.908;1.870;2022-07-29T16:47:05;6.17;;;2.10;;
71360;SDS011;59166;48.908;1.870;2022-07-29T16:52:06;6.20;;;2.25;;
71360;SDS011;59166;48.908;1.870;2022-07-29T16:57:08;7.10;;;2.50;;
71360;SDS011;59166;48.908;1.870;2022-07-29T17:02:09;7.18;;;2.10;;
71360;SDS011;59166;48.908;1.870;2022-07-29T17:07:09;7.80;;;2.40;;
71360;SDS011;59166;48.908;1.870;2022-07-29T17:12:11;5.40;;;2.30;;
71360;SDS011;59166;48.908;1.870;2022-07-29T17:17:12;6.90;;;2.30;;
71360;SDS011;59166;48.908;1.870;2022-07-29T17:22:13;6.87;;;2.30;;
71360;SDS011;59166;48.908;1.870;2022-07-29T17:27:15;8.00;;;2.30;;
71360;SDS011;59166;48.908;1.870;2022-07-29T17:32:16;6.82;;;2.20;;
71360;SDS011;59166;48.908;1.870;2022-07-29T17:37:16;8.83;;;2.47;;
71360;SDS011;59166;48.908;1.870;2022-07-29T17:42:19;6.47;;;2.23;;
71360;SDS011;59166;48.908;1.870;2022-07-29T17:47:19;6.47;;;2.30;;
71360;SDS011;59166;48.908;1.870;2022-07-29T17:52:20;7.70;;;2.70;;
71360;SDS011;59166;48.908;1.870;2022-07-29T17:57:22;7.35;;;2.60;;
71360;SDS011;59166;48.908;1.870;2022-07-29T18:02:23;6.15;;;2.40;;
71360;SDS011;59166;48.908;1.870;2022-07-29T18:07:23;7.87;;;2.80;;
71360;SDS011;59166;48.908;1.870;2022-07-29T18:12:25;6.37;;;2.80;;
71360;SDS011;59166;48.908;1.870;2022-07-29T18:17:27;10.68;;;3.03;;
71360;SDS011;59166;48.908;1.870;2022-07-29T18:22:27;7.40;;;3.10;;
71360;SDS011;59166;48.908;1.870;2022-07-29T18:27:29;10.03;;;2.87;;
71360;SDS011;59166;48.908;1.870;2022-07-29T18:32:30;7.40;;;2.93;;
71360;SDS011;59166;48.908;1.870;2022-07-29T18:37:31;8.52;;;2.88;;
71360;SDS011;59166;48.908;1.870;2022-07-29T18:42:33;7.03;;;2.93;;
71360;SDS011;59166;48.908;1.870;2022-07-29T18:47:34;7.18;;;2.60;;
71360;SDS011;59166;48.908;1.870;2022-07-29T18:52:35;6.33;;;2.83;;
71360;SDS011;59166;48.908;1.870;2022-07-29T18:57:37;7.45;;;2.80;;
71360;SDS011;59166;48.908;1.870;2022-07-29T19:02:38;7.38;;;2.90;;
71360;SDS011;59166;48.908;1.870;2022-07-29T19:07:39;7.17;;;2.83;;
71360;SDS011;59166;48.908;1.870;2022-07-29T19:12:41;8.03;;;3.10;;
71360;SDS011;59166;48.908;1.870;2022-07-29T19:17:41;6.47;;;2.77;;
71360;SDS011;59166;48.908;1.870;2022-07-29T19:22:42;6.40;;;2.97;;
71360;SDS011;59166;48.908;1.870;2022-07-29T19:27:44;6.20;;;2.60;;
71360;SDS011;59166;48.908;1.870;2022-07-29T19:32:45;7.70;;;2.80;;
71360;SDS011;59166;48.908;1.870;2022-07-29T19:37:45;7.80;;;2.80;;
71360;SDS011;59166;48.908;1.870;2022-07-29T19:42:47;5.77;;;2.60;;
71360;SDS011;59166;48.908;1.870;2022-07-29T19:47:48;8.55;;;2.90;;
71360;SDS011;59166;48.908;1.870;2022-07-29T19:52:49;6.30;;;2.88;;
71360;SDS011;59166;48.908;1.870;2022-07-29T19:57:52;8.70;;;3.10;;
71360;SDS011;59166;48.908;1.870;2022-07-29T20:02:52;8.02;;;2.90;;
71360;SDS011;59166;48.908;1.870;2022-07-29T20:07:53;7.33;;;3.00;;
71360;SDS011;59166;48.908;1.870;2022-07-29T20:12:56;6.97;;;2.80;;
71360;SDS011;59166;48.908;1.870;2022-07-29T20:17:56;7.78;;;3.03;;
71360;SDS011;59166;48.908;1.870;2022-07-29T20:22:57;7.13;;;2.90;;
71360;SDS011;59166;48.908;1.870;2022-07-29T20:27:59;6.63;;;2.73;;
71360;SDS011;59166;48.908;1.870;2022-07-29T20:32:59;7.60;;;2.72;;
71360;SDS011;59166;48.908;1.870;2022-07-29T20:38:00;7.80;;;2.80;;
71360;SDS011;59166;48.908;1.870;2022-07-29T20:43:02;7.07;;;2.92;;
71360;SDS011;59166;48.908;1.870;2022-07-29T20:48:03;7.23;;;2.83;;
71360;SDS011;59166;48.908;1.870;2022-07-29T20:53:04;7.38;;;2.90;;
71360;SDS011;59166;48.908;1.870;2022-07-29T20:58:06;9.00;;;2.80;;
71360;SDS011;59166;48.908;1.870;2022-07-29T21:03:07;7.53;;;2.90;;
71360;SDS011;59166;48.908;1.870;2022-07-29T21:08:08;6.88;;;2.78;;
71360;SDS011;59166;48.908;1.870;2022-07-29T21:13:10;10.80;;;2.90;;
71360;SDS011;59166;48.908;1.870;2022-07-29T21:18:11;6.07;;;2.70;;
71360;SDS011;59166;48.908;1.870;2022-07-29T21:23:11;6.83;;;2.60;;
71360;SDS011;59166;48.908;1.870;2022-07-29T21:28:13;9.83;;;3.70;;
71360;SDS011;59166;48.908;1.870;2022-07-29T21:33:14;9.00;;;3.92;;
71360;SDS011;59166;48.908;1.870;2022-07-29T21:38:14;8.77;;;3.50;;
71360;SDS011;59166;48.908;1.870;2022-07-29T21:43:16;7.75;;;3.00;;
71360;SDS011;59166;48.908;1.870;2022-07-29T21:48:18;8.73;;;3.00;;
71360;SDS011;59166;48.908;1.870;2022-07-29T21:53:19;8.02;;;2.70;;
71360;SDS011;59166;48.908;1.870;2022-07-29T21:58:21;6.97;;;3.03;;
71360;SDS011;59166;48.908;1.870;2022-07-29T22:03:22;7.87;;;2.60;;
71360;SDS011;59166;48.908;1.870;2022-07-29T22:08:23;7.70;;;2.88;;
71360;SDS011;59166;48.908;1.870;2022-07-29T22:13:25;6.83;;;2.80;;
71360;SDS011;59166;48.908;1.870;2022-07-29T22:18:25;7.63;;;2.70;;
71360;SDS011;59166;48.908;1.870;2022-07-29T22:23:26;7.80;;;2.57;;
71360;SDS011;59166;48.908;1.870;2022-07-29T22:28:28;9.37;;;3.00;;
71360;SDS011;59166;48.908;1.870;2022-07-29T22:33:28;7.82;;;2.70;;
71360;SDS011;59166;48.908;1.870;2022-07-29T22:38:29;7.03;;;2.50;;
71360;SDS011;59166;48.908;1.870;2022-07-29T22:43:31;8.33;;;2.70;;
71360;SDS011;59166;48.908;1.870;2022-07-29T22:48:32;10.27;;;2.70;;
71360;SDS011;59166;48.908;1.870;2022-07-29T22:53:33;6.35;;;2.55;;
71360;SDS011;59166;48.908;1.870;2022-07-29T22:58:35;6.47;;;2.70;;
71360;SDS011;59166;48.908;1.870;2022-07-29T23:03:35;6.80;;;2.43;;
71360;SDS011;59166;48.908;1.870;2022-07-29T23:08:36;9.23;;;2.80;;
71360;SDS011;59166;48.908;1.870;2022-07-29T23:13:38;8.57;;;2.80;;
71360;SDS011;59166;48.908;1.870;2022-07-29T23:18:39;8.43;;;2.67;;
71360;SDS011;59166;48.908;1.870;2022-07-29T23:23:40;7.43;;;2.50;;
71360;SDS011;59166;48.908;1.870;2022-07-29T23:28:42;6.33;;;2.47;;
71360;SDS011;59166;48.908;1.870;2022-07-29T23:33:42;8.23;;;2.90;;
71360;SDS011;59166;48.908;1.870;2022-07-29T23:38:43;9.30;;;2.57;;
71360;SDS011;59166;48.908;1.870;2022-07-29T23:43:45;7.97;;;2.67;;
71360;SDS011;59166;48.908;1.870;2022-07-29T23:48:47;6.50;;;2.63;;
71360;SDS011;59166;48.908;1.870;2022-07-29T23:53:47;7.30;;;2.60;;
71360;SDS011;59166;48.908;1.870;2022-07-29T23:58:49;8.57;;;2.78;;
